Time;durP1;ratioP1;P1;durP2;ratioP2;P2;SDS_P1;SDS_P2;PMS_P1;PMS_P2;Temp;Humidity;BMP_temperature;BMP_pressure;BME280_temperature;BME280_humidity;BME280_pressure;Samples;Min_cycle;Max_cycle;Signal;HPM_P1;HPM_P2
2022/08/14 00:02:07;;;;;;;7.67;6.97;;;21.60;81.70;;;;;;5032397;28;20498;-56
2022/08/14 00:04:36;;;;;;;7.70;6.90;;;21.50;82.00;;;;;;5032180;28;20544;-60
2022/08/14 00:07:04;;;;;;;8.80;6.13;;;21.50;82.30;;;;;;5031180;28;20521;-56
2022/08/14 00:09:31;;;;;;;7.17;6.57;;;21.40;82.70;;;;;;5032430;28;20466;-56
2022/08/14 00:11:59;;;;;;;7.23;6.47;;;21.40;83.10;;;;;;5031996;28;20549;-58
2022/08/14 00:14:28;;;;;;;7.20;6.60;;;21.40;83.50;;;;;;5032336;28;20893;-61
2022/08/14 00:16:56;;;;;;;8.73;6.70;;;21.40;83.90;;;;;;5016227;28;20508;-57
2022/08/14 00:19:23;;;;;;;8.00;7.20;;;21.30;84.40;;;;;;5032565;28;20555;-56
2022/08/14 00:21:52;;;;;;;8.30;6.73;;;21.30;85.00;;;;;;5030718;28;20537;-58
2022/08/14 00:24:21;;;;;;;8.50;7.40;;;21.30;85.30;;;;;;5031930;28;20928;-57
2022/08/14 00:26:49;;;;;;;7.03;6.43;;;21.20;85.60;;;;;;5035050;28;20487;-57
2022/08/14 00:29:16;;;;;;;7.90;7.20;;;21.20;86.50;;;;;;5035324;28;20544;-56
2022/08/14 00:31:43;;;;;;;7.77;7.07;;;21.20;86.40;;;;;;5035978;28;20552;-56
2022/08/14 00:34:10;;;;;;;7.50;6.80;;;21.20;86.80;;;;;;5035653;28;20542;-58
2022/08/14 00:36:37;;;;;;;6.20;5.60;;;21.10;87.10;;;;;;5035967;28;20520;-57
2022/08/14 00:39:06;;;;;;;7.33;6.63;;;21.10;87.40;;;;;;5036152;28;20548;-57
2022/08/14 00:41:34;;;;;;;7.53;6.80;;;21.10;87.80;;;;;;5036282;28;20499;-56
2022/08/14 00:44:01;;;;;;;8.10;7.30;;;21.00;88.20;;;;;;5035938;28;20465;-57
2022/08/14 00:46:29;;;;;;;7.10;6.13;;;21.00;88.70;;;;;;5036244;28;20564;-57
2022/08/14 00:48:56;;;;;;;8.03;7.30;;;20.90;89.20;;;;;;5035302;28;20809;-57
2022/08/14 00:51:23;;;;;;;9.63;7.00;;;20.90;89.70;;;;;;5035856;28;20565;-56
2022/08/14 00:53:50;;;;;;;10.20;7.00;;;20.90;90.00;;;;;;5035813;28;20467;-58
2022/08/14 00:56:20;;;;;;;7.80;6.97;;;20.90;90.20;;;;;;5035398;28;21043;-57
2022/08/14 00:58:47;;;;;;;7.37;6.70;;;20.90;90.20;;;;;;5035316;28;20466;-57
2022/08/14 01:01:17;;;;;;;7.47;6.77;;;20.80;90.30;;;;;;5035816;28;20545;-57
2022/08/14 01:03:45;;;;;;;7.57;6.87;;;20.80;90.50;;;;;;5035601;28;20492;-57
2022/08/14 01:06:15;;;;;;;7.07;6.47;;;20.80;90.70;;;;;;5033671;28;21048;-57
2022/08/14 01:08:44;;;;;;;8.47;7.40;;;20.80;90.70;;;;;;5035654;28;20469;-56
2022/08/14 01:11:14;;;;;;;8.30;7.50;;;20.80;90.70;;;;;;5034020;28;20972;-57
2022/08/14 01:13:45;;;;;;;7.93;7.23;;;20.70;90.80;;;;;;5035231;28;20467;-57
2022/08/14 01:16:15;;;;;;;7.63;7.03;;;20.70;91.10;;;;;;5035606;28;20488;-57
2022/08/14 01:21:34;;;;;;;9.60;8.77;;;20.70;91.40;;;;;;5036185;28;20540;-57
2022/08/14 01:24:02;;;;;;;8.43;7.60;;;20.60;91.50;;;;;;5034957;28;20514;-57
2022/08/14 01:26:30;;;;;;;8.93;7.57;;;20.60;91.70;;;;;;5035096;28;20463;-58
2022/08/14 01:28:59;;;;;;;8.40;7.67;;;20.60;91.80;;;;;;5019854;28;20492;-57
2022/08/14 01:31:29;;;;;;;7.93;7.13;;;20.60;91.80;;;;;;5034463;28;20905;-56
2022/08/14 01:33:59;;;;;;;9.67;7.90;;;20.60;92.00;;;;;;5035364;28;20489;-58
2022/08/14 01:36:27;;;;;;;9.07;8.07;;;20.60;92.20;;;;;;5035134;28;20491;-56
2022/08/14 01:38:57;;;;;;;8.57;7.87;;;20.60;92.30;;;;;;5034701;28;20551;-57
2022/08/14 01:41:26;;;;;;;8.27;7.57;;;20.50;92.30;;;;;;5034876;28;20464;-57
2022/08/14 01:43:59;;;;;;;7.70;7.10;;;20.50;92.40;;;;;;5034881;28;20540;-55
2022/08/14 01:46:29;;;;;;;9.00;8.10;;;20.50;92.60;;;;;;5035152;28;20473;-55
2022/08/14 01:48:57;;;;;;;8.70;7.80;;;20.50;92.70;;;;;;5034100;28;20553;-55
2022/08/14 01:51:27;;;;;;;10.93;7.70;;;20.50;92.70;;;;;;5036024;28;20540;-56
2022/08/14 01:53:57;;;;;;;9.00;8.27;;;20.50;92.80;;;;;;5033796;28;20468;-57
2022/08/14 01:56:35;;;;;;;8.40;7.60;;;20.50;92.80;;;;;;5033749;28;20493;-56
2022/08/14 01:59:02;;;;;;;8.80;7.90;;;20.50;92.90;;;;;;5032925;28;20457;-58
2022/08/14 02:01:30;;;;;;;9.07;7.93;;;20.50;93.00;;;;;;5034903;28;20460;-57
2022/08/14 02:03:57;;;;;;;9.00;8.20;;;20.50;93.10;;;;;;5034708;28;20500;-56
2022/08/14 02:06:25;;;;;;;9.03;8.23;;;20.50;93.20;;;;;;5032867;28;20481;-58
2022/08/14 02:08:53;;;;;;;8.70;7.60;;;20.60;93.20;;;;;;5034428;28;20527;-57
2022/08/14 02:11:23;;;;;;;9.30;8.07;;;20.60;93.20;;;;;;5035132;28;20445;-56
2022/08/14 02:13:55;;;;;;;8.93;8.10;;;20.60;93.20;;;;;;5034263;28;20473;-57
2022/08/14 02:16:25;;;;;;;9.63;8.47;;;20.60;93.50;;;;;;5034126;28;20493;-57
2022/08/14 02:18:54;;;;;;;9.00;8.10;;;20.60;93.20;;;;;;5033843;28;20880;-57
2022/08/14 02:21:21;;;;;;;10.00;7.57;;;20.60;93.20;;;;;;5033262;28;20469;-56
2022/08/14 02:23:51;;;;;;;7.97;7.17;;;20.60;93.20;;;;;;5035598;28;20496;-56
2022/08/14 02:26:24;;;;;;;9.30;8.50;;;20.60;93.30;;;;;;5035304;28;20513;-57
2022/08/14 02:28:55;;;;;;;9.30;8.43;;;20.60;93.30;;;;;;5034508;28;20489;-56
2022/08/14 02:31:22;;;;;;;8.87;7.97;;;20.60;93.40;;;;;;5035077;28;20451;-56
2022/08/14 02:33:49;;;;;;;8.77;7.97;;;20.50;93.40;;;;;;5033209;28;20553;-55
2022/08/14 02:38:42;;;;;;;8.77;7.80;;;20.50;93.60;;;;;;5031195;22;20529;-56
2022/08/14 02:41:13;;;;;;;9.27;8.47;;;20.50;93.70;;;;;;5014604;28;20241;-55
2022/08/14 02:43:42;;;;;;;8.60;7.77;;;20.50;93.80;;;;;;5013699;28;20473;-55
2022/08/14 02:46:11;;;;;;;9.60;8.63;;;20.40;93.90;;;;;;5014278;28;20635;-55
2022/08/14 02:48:40;;;;;;;9.40;8.40;;;20.40;94.00;;;;;;5012595;28;20527;-56
2022/08/14 02:51:09;;;;;;;8.97;8.17;;;20.40;94.00;;;;;;5013687;28;20556;-56
2022/08/14 02:53:39;;;;;;;8.63;7.70;;;20.40;94.10;;;;;;5012807;28;20557;-56
2022/08/14 02:56:09;;;;;;;10.27;9.17;;;20.30;94.20;;;;;;5012564;28;20489;-57
2022/08/14 02:58:38;;;;;;;9.60;8.80;;;20.30;94.30;;;;;;5013180;28;20527;-56
2022/08/14 03:01:08;;;;;;;9.70;8.27;;;20.30;94.70;;;;;;5013265;28;20469;-57
2022/08/14 03:03:36;;;;;;;10.00;9.10;;;20.20;94.60;;;;;;5013447;28;20958;-56
2022/08/14 03:06:04;;;;;;;9.90;9.00;;;20.20;94.70;;;;;;5012953;28;20458;-56
2022/08/14 03:08:32;;;;;;;9.60;8.70;;;20.20;94.90;;;;;;5012683;28;20914;-58
2022/08/14 03:11:01;;;;;;;8.87;8.00;;;20.10;94.90;;;;;;5013938;28;21052;-56
2022/08/14 03:13:30;;;;;;;8.23;7.50;;;20.10;95.10;;;;;;5012742;28;20446;-55
2022/08/14 03:15:57;;;;;;;9.77;8.73;;;20.10;95.20;;;;;;5013374;28;20481;-56
2022/08/14 03:18:27;;;;;;;9.13;8.30;;;20.00;95.30;;;;;;5011623;28;20560;-56
2022/08/14 03:20:54;;;;;;;9.03;8.23;;;20.00;95.40;;;;;;5012884;28;20461;-56
2022/08/14 03:23:22;;;;;;;9.57;8.67;;;20.00;95.60;;;;;;5013100;28;20459;-56
2022/08/14 03:25:49;;;;;;;10.80;9.17;;;20.00;95.70;;;;;;5012664;28;20553;-56
2022/08/14 03:28:17;;;;;;;9.90;8.90;;;19.90;95.80;;;;;;5013514;28;20480;-58
2022/08/14 03:30:44;;;;;;;9.63;8.40;;;19.90;96.00;;;;;;5013363;28;20458;-56
2022/08/14 03:33:12;;;;;;;9.83;8.93;;;19.90;96.10;;;;;;5012761;28;20819;-56
2022/08/14 03:35:42;;;;;;;9.80;8.90;;;19.80;96.10;;;;;;5013846;28;20549;-56
2022/08/14 03:38:11;;;;;;;9.50;8.57;;;19.80;96.30;;;;;;5012278;28;20520;-59
2022/08/14 03:40:40;;;;;;;9.33;8.13;;;19.80;96.50;;;;;;4994319;28;20541;-56
2022/08/14 03:43:09;;;;;;;11.20;8.73;;;19.80;96.60;;;;;;4999365;28;20458;-57
2022/08/14 03:45:38;;;;;;;10.63;9.57;;;19.70;96.80;;;;;;5012603;28;20540;-56
2022/08/14 03:48:14;;;;;;;11.20;10.00;;;19.70;96.90;;;;;;5013002;28;20504;-56
2022/08/14 03:50:43;;;;;;;9.70;8.83;;;19.70;97.00;;;;;;5012789;28;20820;-56
2022/08/14 03:53:11;;;;;;;9.83;8.73;;;19.70;97.20;;;;;;5012361;28;20500;-57
2022/08/14 03:55:38;;;;;;;9.60;8.70;;;19.60;97.30;;;;;;5011977;28;20481;-57
2022/08/14 03:58:07;;;;;;;10.13;8.60;;;19.60;97.50;;;;;;5012641;28;20488;-57
2022/08/14 04:00:34;;;;;;;10.67;9.67;;;19.60;97.60;;;;;;5010591;28;20568;-57
2022/08/14 04:03:06;;;;;;;9.77;8.87;;;19.60;97.80;;;;;;4997425;28;20647;-56
2022/08/14 04:05:33;;;;;;;10.20;9.20;;;19.60;97.80;;;;;;5011878;28;20450;-56
2022/08/14 04:10:08;;;;;;;13.60;9.80;;;19.60;97.70;;;;;;5115656;27;20567;-57
2022/08/14 04:12:36;;;;;;;11.17;10.17;;;19.60;98.10;;;;;;5111020;27;20901;-58
2022/08/14 04:15:05;;;;;;;11.23;9.87;;;19.50;98.20;;;;;;5130709;27;20456;-57
2022/08/14 04:17:32;;;;;;;12.33;10.07;;;19.50;98.10;;;;;;5120208;27;20478;-57
2022/08/14 04:20:02;;;;;;;10.67;9.77;;;19.50;98.30;;;;;;5110433;28;20485;-56
2022/08/14 04:22:30;;;;;;;10.33;9.30;;;19.50;98.40;;;;;;5110646;28;20882;-57
2022/08/14 04:24:58;;;;;;;9.20;8.50;;;19.50;98.50;;;;;;5109670;28;20464;-57
2022/08/14 04:27:27;;;;;;;10.50;9.50;;;19.50;98.60;;;;;;5108711;28;20477;-57
2022/08/14 04:29:56;;;;;;;12.30;9.40;;;19.50;98.80;;;;;;5111218;28;20482;-56
2022/08/14 04:32:25;;;;;;;10.67;9.77;;;19.50;98.80;;;;;;5110560;28;20481;-57
2022/08/14 04:34:52;;;;;;;10.37;9.37;;;19.50;98.80;;;;;;5114017;28;20534;-57
2022/08/14 04:45:40;;;;;;;10.50;9.07;;;19.90;98.80;;;;;;5109541;28;20441;-55
2022/08/14 04:48:11;;;;;;;9.93;8.73;;;20.00;98.70;;;;;;5113275;27;20829;-57
2022/08/14 04:50:40;;;;;;;9.80;8.97;;;20.20;98.50;;;;;;5109257;28;20980;-56
2022/08/14 04:53:07;;;;;;;9.43;8.63;;;20.40;98.20;;;;;;5109959;28;20468;-56
2022/08/14 04:55:34;;;;;;;9.57;8.77;;;20.60;97.80;;;;;;5109544;28;20549;-58
2022/08/14 04:58:04;;;;;;;9.20;8.40;;;20.80;97.30;;;;;;5109585;28;20554;-55
2022/08/14 05:00:32;;;;;;;10.53;9.60;;;21.00;96.80;;;;;;5109657;28;20442;-57
2022/08/14 05:03:02;;;;;;;9.70;8.80;;;21.20;96.30;;;;;;5110101;28;20479;-56
2022/08/14 05:05:30;;;;;;;11.90;10.00;;;21.40;95.70;;;;;;5110060;28;20455;-56
2022/08/14 05:08:07;;;;;;;10.53;9.60;;;21.60;95.30;;;;;;5109757;28;20523;-57
2022/08/14 05:10:36;;;;;;;8.60;7.87;;;21.70;94.70;;;;;;5110580;28;20481;-57
2022/08/14 05:13:05;;;;;;;9.47;8.67;;;21.90;94.20;;;;;;5110660;28;20441;-57
2022/08/14 05:15:35;;;;;;;9.13;8.20;;;22.00;93.80;;;;;;5110370;28;20452;-58
2022/08/14 05:18:03;;;;;;;9.27;8.30;;;22.10;93.30;;;;;;5110264;28;20467;-57
2022/08/14 05:20:32;;;;;;;9.27;8.40;;;22.20;92.90;;;;;;5101755;28;20889;-57
2022/08/14 05:23:00;;;;;;;11.23;8.83;;;22.20;92.70;;;;;;5096706;28;20856;-58
2022/08/14 05:25:27;;;;;;;7.97;7.27;;;22.20;92.30;;;;;;5096640;28;20442;-57
2022/08/14 05:27:55;;;;;;;16.77;11.40;;;22.20;92.10;;;;;;5095872;28;20565;-58
2022/08/14 05:30:29;;;;;;;10.47;9.50;;;22.30;92.00;;;;;;5096142;28;20900;-57
2022/08/14 05:32:56;;;;;;;9.40;8.40;;;22.40;91.80;;;;;;5096030;28;20437;-58
2022/08/14 05:35:23;;;;;;;9.00;8.20;;;22.40;91.50;;;;;;5096439;28;20546;-58
2022/08/14 05:37:50;;;;;;;9.67;8.77;;;22.40;91.30;;;;;;5095768;28;21049;-58
2022/08/14 05:40:18;;;;;;;9.40;8.47;;;22.40;91.10;;;;;;5095679;28;20534;-57
2022/08/14 05:42:45;;;;;;;8.30;7.60;;;22.40;91.00;;;;;;5095619;28;21019;-57
2022/08/14 05:45:13;;;;;;;8.83;8.03;;;22.40;90.90;;;;;;5095789;28;20575;-55
2022/08/14 05:47:43;;;;;;;8.77;8.00;;;22.40;90.80;;;;;;5095431;28;20466;-58
2022/08/14 05:50:12;;;;;;;9.57;8.77;;;22.40;90.80;;;;;;5095703;28;20567;-57
2022/08/14 05:52:39;;;;;;;7.93;7.33;;;22.50;90.70;;;;;;5095410;28;20439;-57
2022/08/14 05:55:08;;;;;;;9.20;8.40;;;22.60;90.60;;;;;;5095699;28;20540;-57
2022/08/14 05:57:47;;;;;;;9.37;8.57;;;22.70;90.40;;;;;;5095698;28;20557;-58
2022/08/14 06:00:15;;;;;;;7.60;7.00;;;22.70;90.10;;;;;;5095708;28;20492;-58
2022/08/14 06:02:44;;;;;;;7.97;7.30;;;22.80;90.00;;;;;;5095232;28;20535;-57
2022/08/14 06:05:12;;;;;;;14.87;8.53;;;22.80;89.70;;;;;;5096030;28;20575;-58
2022/08/14 06:07:39;;;;;;;9.10;8.03;;;22.90;89.20;;;;;;5095453;28;20478;-58
2022/08/14 06:10:09;;;;;;;9.67;8.67;;;22.90;88.70;;;;;;5095664;28;20481;-58
2022/08/14 06:12:36;;;;;;;8.33;7.63;;;22.90;88.50;;;;;;5095359;28;20439;-57
2022/08/14 06:15:05;;;;;;;8.87;8.07;;;22.90;88.50;;;;;;5094925;28;20558;-59
2022/08/14 06:17:32;;;;;;;11.07;7.60;;;22.90;88.40;;;;;;5095025;28;20466;-58
2022/08/14 06:20:01;;;;;;;8.50;7.67;;;22.90;88.30;;;;;;5095322;28;20521;-57
2022/08/14 06:22:28;;;;;;;9.43;8.27;;;22.90;88.00;;;;;;5094765;28;20934;-58
2022/08/14 06:24:55;;;;;;;8.37;7.63;;;23.00;87.90;;;;;;5095336;28;20532;-57
2022/08/14 06:27:22;;;;;;;7.93;7.33;;;23.00;87.70;;;;;;5095080;28;20549;-58
2022/08/14 06:29:49;;;;;;;9.17;8.47;;;23.10;87.50;;;;;;5094497;28;20474;-57
2022/08/14 06:32:17;;;;;;;9.63;8.77;;;23.10;87.30;;;;;;5093570;28;20517;-57
2022/08/14 06:34:44;;;;;;;8.73;8.03;;;23.20;87.10;;;;;;5094879;28;20442;-57
2022/08/14 06:37:15;;;;;;;8.43;7.73;;;23.30;86.70;;;;;;5094643;28;20556;-57
2022/08/14 06:39:42;;;;;;;7.87;7.27;;;23.30;86.10;;;;;;5095039;28;20803;-58
2022/08/14 06:42:10;;;;;;;9.27;8.47;;;23.40;85.70;;;;;;5094841;28;20468;-58
2022/08/14 06:44:37;;;;;;;8.97;8.20;;;23.50;85.30;;;;;;5094524;28;20449;-57
2022/08/14 06:47:05;;;;;;;9.50;7.73;;;23.60;84.80;;;;;;5094516;28;20469;-58
2022/08/14 06:49:32;;;;;;;9.17;8.00;;;23.70;84.40;;;;;;5094947;28;20486;-57
2022/08/14 06:52:00;;;;;;;8.73;7.90;;;23.80;83.80;;;;;;5094937;28;20548;-56
2022/08/14 06:54:28;;;;;;;8.63;7.93;;;23.90;83.30;;;;;;5094987;28;20442;-57
2022/08/14 06:56:55;;;;;;;9.27;8.27;;;24.00;82.70;;;;;;5094939;28;20466;-57
2022/08/14 06:59:22;;;;;;;9.43;8.03;;;24.10;82.20;;;;;;5094989;28;20532;-57
2022/08/14 07:07:19;;;;;;;8.90;8.20;;;24.30;81.10;;;;;;5094712;28;20597;-56
2022/08/14 07:09:48;;;;;;;8.80;7.97;;;24.40;80.60;;;;;;5094438;28;20493;-57
2022/08/14 07:12:15;;;;;;;8.70;7.97;;;24.40;79.90;;;;;;5094116;28;20512;-58
2022/08/14 07:14:43;;;;;;;9.27;8.53;;;24.50;79.30;;;;;;5093759;28;20533;-57
2022/08/14 07:17:10;;;;;;;8.90;8.10;;;24.60;79.00;;;;;;5093753;28;20554;-57
2022/08/14 07:19:37;;;;;;;8.83;8.13;;;24.60;78.50;;;;;;5093768;28;20533;-57
2022/08/14 07:22:04;;;;;;;8.33;7.40;;;24.70;78.00;;;;;;5093729;28;21005;-56
2022/08/14 07:24:31;;;;;;;10.00;8.77;;;24.80;77.80;;;;;;5094308;28;20545;-56
2022/08/14 07:27:00;;;;;;;10.80;8.43;;;24.90;77.30;;;;;;5093837;28;20567;-56
2022/08/14 07:29:27;;;;;;;8.63;7.93;;;25.00;76.70;;;;;;5093731;28;20562;-57
2022/08/14 07:31:54;;;;;;;8.63;7.93;;;25.10;76.10;;;;;;5093797;28;20543;-57
2022/08/14 07:34:22;;;;;;;9.30;8.40;;;25.20;75.70;;;;;;5093699;28;20859;-59
2022/08/14 07:36:49;;;;;;;9.97;9.20;;;25.30;75.20;;;;;;5093287;28;20503;-58
2022/08/14 07:39:16;;;;;;;8.77;7.97;;;25.40;74.80;;;;;;5093318;28;20544;-57
2022/08/14 07:41:43;;;;;;;9.23;8.43;;;25.50;74.20;;;;;;5093185;28;20451;-56
2022/08/14 07:44:12;;;;;;;9.53;8.50;;;25.60;73.30;;;;;;5093673;28;20438;-57
2022/08/14 07:46:40;;;;;;;9.30;8.30;;;25.70;72.70;;;;;;5093441;28;20474;-57
2022/08/14 07:49:08;;;;;;;9.40;8.63;;;25.80;72.30;;;;;;5093545;28;20926;-57
2022/08/14 07:51:35;;;;;;;8.73;7.93;;;25.90;71.90;;;;;;5093448;28;21031;-56
2022/08/14 07:54:03;;;;;;;8.27;7.67;;;25.90;71.60;;;;;;5093582;28;20535;-57
2022/08/14 07:56:30;;;;;;;8.50;7.67;;;26.00;71.00;;;;;;5093230;28;20534;-57
2022/08/14 07:58:57;;;;;;;9.33;8.53;;;26.20;70.20;;;;;;5093614;28;20959;-58
2022/08/14 08:01:27;;;;;;;8.87;7.97;;;26.20;69.40;;;;;;5093650;28;20525;-57
2022/08/14 08:03:58;;;;;;;8.90;8.20;;;26.30;68.70;;;;;;5093813;28;20434;-58
2022/08/14 08:06:25;;;;;;;8.90;8.20;;;26.50;68.00;;;;;;5093983;28;20448;-58
2022/08/14 08:08:55;;;;;;;9.23;8.43;;;26.60;67.30;;;;;;5093410;28;20465;-57
2022/08/14 08:11:22;;;;;;;8.80;7.87;;;26.70;66.60;;;;;;5093436;28;20538;-57
2022/08/14 08:13:50;;;;;;;8.20;7.40;;;26.90;65.90;;;;;;5093483;28;21032;-57
2022/08/14 08:16:20;;;;;;;9.07;8.30;;;27.00;65.10;;;;;;5093690;28;20444;-59
2022/08/14 08:18:49;;;;;;;8.50;7.70;;;27.10;64.50;;;;;;5093618;28;20444;-57
2022/08/14 08:21:16;;;;;;;8.77;7.97;;;27.10;64.10;;;;;;5093256;28;20447;-57
2022/08/14 08:23:43;;;;;;;10.17;8.60;;;27.20;63.80;;;;;;5093778;28;20446;-58
2022/08/14 08:26:11;;;;;;;9.77;8.87;;;27.40;63.10;;;;;;5093674;28;20480;-57
2022/08/14 08:28:38;;;;;;;9.17;8.43;;;27.60;62.40;;;;;;5093601;28;20595;-57
2022/08/14 08:31:07;;;;;;;8.47;7.77;;;27.70;61.50;;;;;;5093096;28;20489;-58
2022/08/14 08:33:37;;;;;;;9.37;8.40;;;27.90;60.80;;;;;;5093033;28;20535;-58
2022/08/14 08:36:10;;;;;;;9.40;8.60;;;28.00;60.20;;;;;;5092739;28;20464;-58
2022/08/14 08:38:37;;;;;;;14.63;8.50;;;28.20;59.70;;;;;;5094316;28;20466;-59
2022/08/14 08:41:05;;;;;;;8.33;7.63;;;28.30;59.10;;;;;;5093162;28;20821;-58
2022/08/14 08:43:34;;;;;;;9.37;8.57;;;28.30;58.70;;;;;;5092840;28;20496;-58
2022/08/14 08:46:03;;;;;;;9.27;8.37;;;28.30;58.50;;;;;;5093170;28;20452;-58
2022/08/14 08:48:42;;;;;;;9.20;8.40;;;28.30;58.50;;;;;;5093239;28;20557;-57
2022/08/14 08:51:22;;;;;;;7.83;7.23;;;28.30;58.20;;;;;;5092721;28;20462;-58
2022/08/14 08:53:57;;;;;;;9.60;8.90;;;28.40;57.90;;;;;;5092645;28;20465;-57
2022/08/14 08:56:39;;;;;;;9.53;8.73;;;28.50;57.70;;;;;;5096013;28;20420;-57
2022/08/14 08:59:18;;;;;;;9.30;8.60;;;28.50;57.40;;;;;;5096910;28;20442;-58
2022/08/14 09:01:51;;;;;;;9.00;8.27;;;28.60;57.10;;;;;;5096544;28;20427;-60
2022/08/14 09:04:19;;;;;;;8.40;7.70;;;28.50;57.10;;;;;;5096888;28;20518;-58
2022/08/14 09:06:49;;;;;;;8.97;8.17;;;28.50;57.10;;;;;;5096894;28;20462;-57
2022/08/14 09:09:23;;;;;;;9.10;8.30;;;28.60;56.80;;;;;;5097234;28;20518;-57
2022/08/14 09:11:53;;;;;;;9.93;8.93;;;28.70;56.50;;;;;;5103663;28;20527;-58
2022/08/14 09:14:20;;;;;;;8.83;8.10;;;28.60;56.40;;;;;;5099051;28;20497;-58
2022/08/14 09:16:48;;;;;;;9.40;8.13;;;28.60;56.40;;;;;;5098497;28;20558;-59
2022/08/14 09:19:16;;;;;;;9.23;8.33;;;28.60;56.30;;;;;;5097947;28;20968;-58
2022/08/14 09:21:43;;;;;;;9.40;8.50;;;28.70;55.60;;;;;;5098488;28;20538;-58
2022/08/14 09:24:12;;;;;;;7.97;7.20;;;28.80;54.90;;;;;;5098165;28;20479;-58
2022/08/14 09:26:40;;;;;;;8.30;7.60;;;28.80;54.30;;;;;;5097855;28;20546;-58
2022/08/14 09:29:09;;;;;;;7.63;6.93;;;28.80;54.20;;;;;;5098914;28;20447;-58
2022/08/14 09:31:38;;;;;;;8.73;8.03;;;28.90;53.90;;;;;;5098772;28;20515;-58
2022/08/14 09:34:18;;;;;;;8.03;7.37;;;28.90;53.60;;;;;;5096083;28;20450;-58
2022/08/14 09:37:27;;;;;;;7.80;7.20;;;28.90;53.40;;;;;;5096160;28;20961;-58
2022/08/14 09:40:04;;;;;;;7.50;6.80;;;29.00;53.00;;;;;;5053535;28;20518;-58
2022/08/14 09:42:45;;;;;;;7.90;7.20;;;29.10;52.60;;;;;;5089364;28;20466;-64
2022/08/14 09:45:17;;;;;;;8.97;8.27;;;29.20;52.40;;;;;;5097520;28;20513;-57
2022/08/14 09:47:47;;;;;;;7.87;7.23;;;29.40;52.20;;;;;;5100214;28;20460;-58
2022/08/14 09:50:21;;;;;;;8.67;7.87;;;29.50;51.90;;;;;;5101358;28;20915;-56
2022/08/14 09:52:54;;;;;;;8.57;7.77;;;29.60;51.60;;;;;;5100547;28;20504;-55
2022/08/14 09:55:24;;;;;;;8.63;7.90;;;29.70;51.30;;;;;;5098211;28;20428;-57
2022/08/14 09:57:52;;;;;;;9.00;8.10;;;29.80;51.00;;;;;;5096803;28;20477;-58
2022/08/14 10:00:36;;;;;;;8.90;8.13;;;29.80;50.80;;;;;;5096044;28;20531;-58
2022/08/14 10:03:04;;;;;;;8.87;8.03;;;29.80;50.90;;;;;;5095389;28;20555;-58
2022/08/14 10:05:34;;;;;;;9.33;8.53;;;29.80;51.20;;;;;;5095474;28;20531;-58
2022/08/14 10:08:03;;;;;;;8.90;7.77;;;29.80;51.10;;;;;;5095058;28;20521;-58
2022/08/14 10:10:34;;;;;;;10.13;8.77;;;29.80;51.20;;;;;;5095132;28;20500;-56
2022/08/14 10:13:02;;;;;;;8.40;7.60;;;29.80;51.10;;;;;;5095299;28;20510;-57
2022/08/14 10:15:31;;;;;;;9.00;8.13;;;29.80;51.00;;;;;;5095431;28;20507;-57
2022/08/14 10:18:08;;;;;;;9.00;8.20;;;29.80;50.70;;;;;;5095149;28;20508;-58
2022/08/14 10:20:40;;;;;;;9.03;8.03;;;29.80;50.40;;;;;;5095308;28;20796;-57
2022/08/14 10:23:16;;;;;;;8.77;7.87;;;29.90;50.30;;;;;;5106202;28;20438;-57
2022/08/14 10:25:49;;;;;;;8.07;7.30;;;30.00;50.00;;;;;;5104947;28;20437;-58
2022/08/14 10:28:18;;;;;;;9.50;8.73;;;30.10;49.70;;;;;;5106271;28;20467;-58
2022/08/14 10:30:47;;;;;;;8.03;7.33;;;30.30;49.40;;;;;;5107862;28;20545;-57
2022/08/14 10:33:26;;;;;;;9.20;7.83;;;30.40;49.00;;;;;;5106822;28;20844;-58
2022/08/14 10:35:53;;;;;;;8.20;7.50;;;30.40;48.70;;;;;;5103705;28;20425;-57
2022/08/14 10:38:28;;;;;;;9.23;8.33;;;30.40;49.20;;;;;;5100952;28;20504;-56
2022/08/14 10:40:57;;;;;;;8.40;7.60;;;30.40;48.50;;;;;;5097487;28;20450;-58
2022/08/14 10:43:25;;;;;;;8.77;7.70;;;30.40;48.70;;;;;;5097780;28;20442;-58
2022/08/14 10:45:54;;;;;;;8.20;7.43;;;30.30;48.80;;;;;;5096517;28;20460;-58
2022/08/14 10:48:22;;;;;;;9.20;8.40;;;30.40;49.10;;;;;;5096053;28;20508;-59
2022/08/14 10:50:50;;;;;;;11.30;8.73;;;30.50;48.80;;;;;;5095523;28;20536;-58
2022/08/14 10:53:28;;;;;;;8.17;7.47;;;30.60;48.50;;;;;;5095680;28;20477;-58
2022/08/14 10:56:02;;;;;;;9.20;8.40;;;30.70;48.20;;;;;;5096064;28;20437;-59
2022/08/14 10:58:31;;;;;;;8.10;7.50;;;30.80;48.10;;;;;;5095186;28;20463;-59
2022/08/14 11:01:04;;;;;;;9.43;8.53;;;30.90;47.70;;;;;;5094618;28;20449;-58
2022/08/14 11:03:39;;;;;;;8.50;7.70;;;30.90;47.40;;;;;;5094288;28;20429;-57
2022/08/14 11:06:18;;;;;;;8.87;8.03;;;30.90;47.20;;;;;;5094311;28;20460;-58
2022/08/14 11:08:47;;;;;;;9.47;8.67;;;30.90;47.00;;;;;;5094345;28;20464;-58
2022/08/14 11:11:17;;;;;;;9.80;7.80;;;31.10;46.50;;;;;;5094123;28;20473;-59
2022/08/14 11:13:45;;;;;;;9.40;8.60;;;31.30;46.10;;;;;;5094569;28;20452;-58
2022/08/14 11:16:14;;;;;;;9.13;8.43;;;31.40;45.80;;;;;;5094613;28;20447;-58
2022/08/14 11:18:45;;;;;;;10.13;8.10;;;31.30;45.70;;;;;;5094599;28;20547;-57
2022/08/14 11:21:17;;;;;;;8.20;7.50;;;31.30;45.90;;;;;;5094621;28;20450;-58
2022/08/14 11:23:48;;;;;;;10.87;8.23;;;31.40;45.60;;;;;;5094400;28;20451;-58
2022/08/14 11:26:18;;;;;;;11.63;8.40;;;31.60;45.30;;;;;;5093514;28;20429;-58
2022/08/14 11:28:49;;;;;;;8.73;7.87;;;31.70;44.80;;;;;;5094295;28;20502;-58
2022/08/14 11:31:18;;;;;;;8.50;7.77;;;31.70;44.60;;;;;;5093914;28;20972;-59
2022/08/14 11:33:50;;;;;;;8.10;7.30;;;31.80;44.40;;;;;;5092895;28;20461;-59
2022/08/14 11:36:17;;;;;;;8.17;7.30;;;32.10;44.10;;;;;;5093976;28;20439;-58
2022/08/14 11:38:46;;;;;;;8.17;7.37;;;32.20;43.80;;;;;;5094261;28;20504;-58
2022/08/14 11:41:16;;;;;;;8.13;7.37;;;32.30;43.40;;;;;;5092437;28;20539;-57
2022/08/14 11:43:45;;;;;;;8.40;7.70;;;32.30;43.00;;;;;;5093840;28;20543;-58
2022/08/14 11:46:14;;;;;;;8.37;7.67;;;32.30;42.70;;;;;;5093509;28;20471;-58
2022/08/14 11:48:52;;;;;;;8.20;6.60;;;32.20;42.70;;;;;;5093904;28;20480;-58
2022/08/14 11:51:22;;;;;;;8.07;7.37;;;32.00;42.70;;;;;;5093906;28;20513;-58
2022/08/14 11:53:55;;;;;;;10.20;7.07;;;32.10;42.60;;;;;;5092974;28;20464;-58
2022/08/14 11:56:24;;;;;;;8.90;8.00;;;32.40;42.60;;;;;;5093253;28;20449;-59
2022/08/14 11:58:53;;;;;;;6.57;5.97;;;32.70;41.10;;;;;;5093672;28;20482;-57
2022/08/14 12:01:27;;;;;;;8.57;6.80;;;33.10;40.10;;;;;;5093274;28;20933;-57
2022/08/14 12:03:57;;;;;;;8.60;7.43;;;33.40;39.30;;;;;;5093315;28;20440;-59
2022/08/14 12:06:25;;;;;;;7.27;6.57;;;33.60;38.80;;;;;;5092336;28;20429;-58
2022/08/14 12:08:55;;;;;;;7.60;6.90;;;33.70;38.70;;;;;;5092829;28;20480;-59
2022/08/14 12:11:24;;;;;;;8.67;7.50;;;33.80;38.60;;;;;;5092918;28;20484;-58
2022/08/14 12:13:51;;;;;;;7.83;7.20;;;33.80;38.50;;;;;;5093268;28;20479;-58
2022/08/14 12:16:20;;;;;;;7.77;7.17;;;34.00;39.10;;;;;;5093761;28;20553;-57
2022/08/14 12:18:49;;;;;;;7.10;6.13;;;34.40;38.10;;;;;;5093736;28;20940;-58
2022/08/14 12:21:19;;;;;;;7.70;6.87;;;34.60;37.50;;;;;;5093801;28;20467;-59
2022/08/14 12:23:47;;;;;;;7.90;7.30;;;34.80;37.10;;;;;;5094963;28;20516;-59
2022/08/14 12:26:19;;;;;;;7.80;7.10;;;34.90;36.90;;;;;;5095797;28;20549;-58
2022/08/14 12:28:51;;;;;;;8.30;6.90;;;34.90;36.80;;;;;;5095447;28;20446;-59
2022/08/14 12:31:20;;;;;;;6.90;6.30;;;34.80;36.90;;;;;;5097354;28;20465;-56
2022/08/14 12:33:58;;;;;;;8.20;6.93;;;34.50;37.10;;;;;;5097653;28;20469;-58
2022/08/14 12:36:29;;;;;;;8.20;7.50;;;34.20;37.50;;;;;;5096775;28;20925;-60
2022/08/14 12:38:57;;;;;;;8.40;7.70;;;33.90;38.00;;;;;;5077159;28;20428;-59
2022/08/14 12:41:28;;;;;;;8.40;7.60;;;33.40;38.60;;;;;;5087064;28;20457;-61
2022/08/14 12:44:00;;;;;;;7.30;6.60;;;33.10;39.30;;;;;;5097043;28;20446;-58
2022/08/14 12:46:30;;;;;;;9.87;8.00;;;33.00;39.60;;;;;;5096995;28;20793;-59
2022/08/14 12:48:59;;;;;;;7.20;6.60;;;33.00;39.80;;;;;;5097248;28;20445;-59
2022/08/14 12:51:28;;;;;;;7.93;7.13;;;33.10;39.70;;;;;;5095532;28;20492;-57
2022/08/14 12:53:56;;;;;;;9.30;7.40;;;33.20;39.50;;;;;;5097424;28;20553;-59
2022/08/14 12:56:25;;;;;;;8.00;7.30;;;33.10;39.40;;;;;;5097152;28;20445;-59
2022/08/14 12:58:54;;;;;;;8.10;7.50;;;33.00;39.50;;;;;;5097042;28;20945;-59
2022/08/14 13:01:24;;;;;;;7.90;7.30;;;32.80;39.60;;;;;;5097603;28;20499;-59
2022/08/14 13:04:04;;;;;;;8.93;7.80;;;32.80;39.60;;;;;;5096717;28;20509;-59
2022/08/14 13:06:32;;;;;;;9.33;8.30;;;32.90;39.50;;;;;;5096023;28;20836;-58
2022/08/14 13:08:59;;;;;;;8.83;8.10;;;32.90;39.20;;;;;;5096610;28;20561;-58
2022/08/14 13:11:34;;;;;;;8.03;7.30;;;32.80;39.20;;;;;;5096617;28;20481;-58
2022/08/14 13:14:03;;;;;;;8.10;7.40;;;32.80;39.90;;;;;;5096545;28;20879;-59
2022/08/14 13:16:32;;;;;;;8.70;8.00;;;32.50;39.50;;;;;;5096897;28;20874;-58
2022/08/14 13:19:00;;;;;;;8.27;7.67;;;32.50;39.60;;;;;;5096581;28;20544;-57